createdAt,value
2022-12-29T00:00:08.002Z,76.35
2022-12-29T00:02:40.583Z,76.52
2022-12-29T00:05:08.156Z,76.40
2022-12-29T00:07:34.823Z,76.34
2022-12-29T00:10:01.721Z,76.18
2022-12-29T00:12:48.323Z,76.15
2022-12-29T00:15:34.009Z,76.44
2022-12-29T00:18:01.181Z,76.16
2022-12-29T00:20:46.825Z,76.09
2022-12-29T00:23:32.609Z,75.84
2022-12-29T00:26:18.023Z,75.87
2022-12-29T00:29:03.449Z,75.59
2022-12-29T00:31:49.064Z,75.48
2022-12-29T00:34:34.905Z,75.07
2022-12-29T00:37:03.035Z,75.17
2022-12-29T00:39:48.558Z,75.18
2022-12-29T00:42:38.677Z,74.73
2022-12-29T00:45:06.004Z,74.61
2022-12-29T00:47:32.637Z,74.33
2022-12-29T00:49:59.288Z,74.17
2022-12-29T00:52:26.001Z,73.92
2022-12-29T00:54:52.709Z,73.63
2022-12-29T00:57:19.422Z,73.52
2022-12-29T00:59:46.401Z,73.38
2022-12-29T01:02:16.278Z,73.01
2022-12-29T01:04:43.817Z,73.02
2022-12-29T01:07:10.718Z,73.11
2022-12-29T01:09:56.917Z,73.09
2022-12-29T01:12:41.626Z,72.39
2022-12-29T01:15:11.377Z,72.34
2022-12-29T01:17:38.008Z,72.05
2022-12-29T01:20:05.831Z,72.23
2022-12-29T01:22:32.608Z,72.15
2022-12-29T01:24:59.343Z,72.05
2022-12-29T01:27:26.078Z,71.88
2022-12-29T01:29:52.820Z,72.16
2022-12-29T01:32:19.511Z,71.79
2022-12-29T01:34:46.200Z,71.50
2022-12-29T01:37:12.886Z,71.74
2022-12-29T01:39:41.131Z,71.38
2022-12-29T01:42:15.771Z,71.33
2022-12-29T01:44:54.101Z,71.27
2022-12-29T01:47:33.632Z,71.06
2022-12-29T01:50:04.523Z,71.52
2022-12-29T01:52:32.612Z,71.13
2022-12-29T01:54:59.315Z,71.22
2022-12-29T01:57:29.040Z,71.27
2022-12-29T02:00:11.086Z,71.17
2022-12-29T02:02:51.865Z,71.25
2022-12-29T02:05:27.298Z,71.22
2022-12-29T02:07:54.107Z,71.29
2022-12-29T02:10:25.705Z,71.43
2022-12-29T02:12:52.799Z,71.28
2022-12-29T02:15:19.490Z,71.27
2022-12-29T02:18:02.717Z,71.56
2022-12-29T02:21:26.744Z,71.47
2022-12-29T02:24:38.477Z,71.59
2022-12-29T02:27:17.142Z,71.53
2022-12-29T02:29:47.661Z,71.67
2022-12-29T02:32:27.189Z,71.77
2022-12-29T02:35:02.879Z,71.95
2022-12-29T02:37:56.357Z,71.96
2022-12-29T02:40:26.207Z,72.01
2022-12-29T02:43:39.484Z,71.87
2022-12-29T02:46:19.620Z,72.16
2022-12-29T02:48:54.210Z,72.07
2022-12-29T02:51:24.934Z,72.25
2022-12-29T02:54:10.785Z,72.27
2022-12-29T02:56:37.889Z,72.00
2022-12-29T02:59:04.628Z,71.99
2022-12-29T03:02:11.934Z,71.93
2022-12-29T03:05:16.883Z,71.74
2022-12-29T03:07:50.144Z,72.23
2022-12-29T03:10:45.960Z,71.99
2022-12-29T03:13:33.094Z,71.93
2022-12-29T03:16:13.412Z,72.08
2022-12-29T03:19:03.775Z,71.96
2022-12-29T03:22:06.566Z,71.87
2022-12-29T03:24:44.527Z,71.98
2022-12-29T03:27:13.562Z,71.87
2022-12-29T03:29:46.516Z,71.92
2022-12-29T03:32:14.310Z,71.62
2022-12-29T03:34:41.259Z,72.09
2022-12-29T03:37:11.585Z,72.28
2022-12-29T03:39:38.308Z,72.03
2022-12-29T03:42:12.501Z,72.43
2022-12-29T03:44:41.222Z,72.13
2022-12-29T03:47:08.600Z,72.48
2022-12-29T03:49:35.361Z,72.56
2022-12-29T03:52:04.512Z,72.57
2022-12-29T03:54:31.832Z,72.46
2022-12-29T03:56:58.683Z,72.32
2022-12-29T03:59:35.780Z,72.60
2022-12-29T04:02:02.663Z,72.74
2022-12-29T04:04:29.659Z,72.74
2022-12-29T04:06:56.338Z,72.95
2022-12-29T04:09:23.037Z,72.89
2022-12-29T04:11:50.367Z,72.96
2022-12-29T04:14:18.376Z,72.81
2022-12-29T04:16:45.326Z,72.95
2022-12-29T04:19:12.160Z,73.10
2022-12-29T04:21:38.821Z,73.12
2022-12-29T04:24:07.701Z,73.54
2022-12-29T04:26:38.709Z,73.47
2022-12-29T04:29:21.515Z,73.50
2022-12-29T04:32:08.614Z,73.48
2022-12-29T04:34:39.612Z,73.73
2022-12-29T04:37:06.415Z,73.72
2022-12-29T04:39:35.169Z,73.53
2022-12-29T04:42:02.161Z,73.64
2022-12-29T04:44:29.032Z,73.41
2022-12-29T04:46:58.724Z,73.43
2022-12-29T04:49:43.085Z,73.32
2022-12-29T04:52:48.228Z,73.17
2022-12-29T04:55:15.124Z,73.14
2022-12-29T04:57:41.791Z,73.11
2022-12-29T05:00:10.329Z,73.12
2022-12-29T05:02:38.336Z,73.19
2022-12-29T05:05:06.107Z,72.83
2022-12-29T05:07:34.765Z,73.27
2022-12-29T05:10:01.660Z,72.78
2022-12-29T05:12:35.190Z,72.68
2022-12-29T05:15:03.800Z,72.81
2022-12-29T05:18:18.610Z,72.68
2022-12-29T05:20:46.070Z,72.71
2022-12-29T11:48:21.107Z,69.51
2022-12-29T11:50:55.164Z,69.55
2022-12-29T11:53:25.016Z,69.51
2022-12-29T11:56:16.212Z,69.58
2022-12-29T11:58:43.269Z,69.19
2022-12-29T12:01:19.341Z,69.24
2022-12-29T12:04:01.451Z,68.98
2022-12-29T12:06:28.699Z,68.57
2022-12-29T12:08:57.893Z,68.37
2022-12-29T12:11:37.514Z,68.50
2022-12-29T12:14:13.785Z,68.56
2022-12-29T12:17:06.006Z,68.04
2022-12-29T12:19:34.897Z,67.88
2022-12-29T12:22:28.052Z,67.70
2022-12-29T12:24:57.388Z,67.50
2022-12-29T12:27:36.010Z,67.44
2022-12-29T12:30:16.808Z,67.47
2022-12-29T12:33:04.524Z,67.24
2022-12-29T12:36:05.514Z,66.92
2022-12-29T12:38:51.856Z,66.92
2022-12-29T12:41:33.865Z,66.53
2022-12-29T12:44:37.554Z,66.48
2022-12-29T12:47:19.488Z,66.48
2022-12-29T12:50:23.570Z,66.58
2022-12-29T12:53:19.078Z,66.44
2022-12-29T12:56:07.697Z,66.27
2022-12-29T12:58:50.138Z,66.46
2022-12-29T13:01:26.166Z,66.47
2022-12-29T13:04:05.226Z,66.46
2022-12-29T13:06:42.901Z,66.70
2022-12-29T13:09:24.663Z,66.54
2022-12-29T13:12:13.477Z,66.76
2022-12-29T13:14:53.924Z,66.71
2022-12-29T13:17:42.802Z,66.69
2022-12-29T13:20:40.393Z,66.85
2022-12-29T13:23:26.772Z,66.85
2022-12-29T13:26:03.890Z,67.02
2022-12-29T13:28:39.537Z,67.01
2022-12-29T13:31:26.960Z,66.81
2022-12-29T13:34:24.985Z,66.87
2022-12-29T13:37:03.169Z,66.91
2022-12-29T13:39:36.224Z,67.22
2022-12-29T13:42:04.127Z,67.20
2022-12-29T13:44:40.056Z,67.28
2022-12-29T13:47:29.035Z,67.29
2022-12-29T13:49:57.317Z,67.29
2022-12-29T13:52:39.194Z,67.48
2022-12-29T13:55:28.810Z,67.55
2022-12-29T13:58:02.864Z,67.73
2022-12-29T14:00:31.590Z,67.80
2022-12-29T14:03:39.923Z,67.84
2022-12-29T14:06:32.371Z,67.94
2022-12-29T14:09:06.536Z,67.92
2022-12-29T14:11:37.369Z,68.00
2022-12-29T14:14:42.869Z,68.02
2022-12-29T14:17:15.115Z,68.23
2022-12-29T14:19:43.476Z,68.34
2022-12-29T14:22:10.762Z,68.45
2022-12-29T14:24:47.338Z,68.28
2022-12-29T14:27:14.076Z,68.37
2022-12-29T14:29:40.733Z,68.13
2022-12-29T14:32:25.866Z,68.08
2022-12-29T14:35:02.249Z,68.21
2022-12-29T14:37:36.080Z,68.23
2022-12-29T14:40:19.244Z,68.25
2022-12-29T14:42:46.963Z,68.47
2022-12-29T14:45:13.891Z,68.58
2022-12-29T14:47:42.442Z,68.62
2022-12-29T14:50:15.364Z,68.58
2022-12-29T14:52:49.204Z,68.52
2022-12-29T14:55:19.094Z,68.56
2022-12-29T14:58:13.680Z,68.91
2022-12-29T15:00:40.652Z,68.76
2022-12-29T15:03:31.711Z,68.86
2022-12-29T15:06:12.457Z,68.97
2022-12-29T15:08:44.355Z,68.88
2022-12-29T15:11:21.337Z,68.94
2022-12-29T15:13:49.720Z,69.24
2022-12-29T15:16:21.765Z,69.07
2022-12-29T15:18:48.494Z,69.07
2022-12-29T15:21:15.969Z,69.17
2022-12-29T15:23:44.201Z,68.94
2022-12-29T15:26:11.520Z,69.11
2022-12-29T15:28:45.896Z,69.06
2022-12-29T15:31:14.817Z,69.09
2022-12-29T15:33:44.685Z,69.16
2022-12-29T15:36:16.402Z,69.11
2022-12-29T15:38:43.112Z,69.25
2022-12-29T15:41:34.015Z,69.41
2022-12-29T15:44:15.817Z,69.18
2022-12-29T15:46:42.439Z,69.72
2022-12-29T15:49:09.534Z,69.59
2022-12-29T15:51:38.397Z,69.74
2022-12-29T15:54:05.164Z,69.71
2022-12-29T15:56:32.593Z,69.71
2022-12-29T15:59:00.076Z,69.72
2022-12-29T16:01:32.900Z,69.94
2022-12-29T16:04:00.808Z,69.92
2022-12-29T16:06:45.007Z,69.89
2022-12-29T16:09:18.809Z,70.02
2022-12-29T16:11:51.800Z,69.91
2022-12-29T16:14:20.925Z,70.15
2022-12-29T16:16:47.621Z,70.05
2022-12-29T16:19:35.551Z,70.28
2022-12-29T16:22:03.729Z,70.34
2022-12-29T16:24:32.447Z,70.31
2022-12-29T16:27:23.286Z,70.33
2022-12-29T16:29:50.951Z,70.61
2022-12-29T16:32:31.315Z,70.77
2022-12-29T16:35:19.604Z,70.73
2022-12-29T16:37:46.593Z,70.91
2022-12-29T16:40:20.617Z,70.98
2022-12-29T16:42:51.857Z,70.84
2022-12-29T16:45:22.354Z,70.87
2022-12-29T16:47:49.801Z,70.84
2022-12-29T16:50:28.253Z,71.10
2022-12-29T16:52:55.517Z,71.13
2022-12-29T16:55:22.234Z,71.20
2022-12-29T16:57:49.379Z,71.15
2022-12-29T17:00:23.863Z,71.00
2022-12-29T17:02:51.564Z,71.02
2022-12-29T17:05:18.701Z,70.77
2022-12-29T17:07:45.724Z,71.01
2022-12-29T17:10:13.407Z,71.03
2022-12-29T17:12:40.232Z,71.05
2022-12-29T17:15:13.702Z,71.00
2022-12-29T17:17:44.612Z,70.97
2022-12-29T17:20:30.682Z,71.30
2022-12-29T17:22:58.199Z,71.42
2022-12-29T17:25:29.563Z,71.42
2022-12-29T17:28:01.196Z,71.37
2022-12-29T17:30:33.277Z,71.48
2022-12-29T17:33:05.507Z,71.63
2022-12-29T17:35:32.211Z,71.52
2022-12-29T17:37:58.874Z,71.88
2022-12-29T17:40:28.054Z,71.71
2022-12-29T17:42:56.247Z,71.74
2022-12-29T17:45:40.891Z,71.97
2022-12-29T17:48:16.310Z,72.26
2022-12-29T17:50:43.348Z,72.33
2022-12-29T17:53:15.040Z,72.60
2022-12-29T17:55:42.196Z,72.83
2022-12-29T17:58:35.370Z,72.93
2022-12-29T18:01:02.354Z,73.08
2022-12-29T18:03:36.002Z,73.27
2022-12-29T18:06:06.093Z,73.10
2022-12-29T18:08:34.679Z,73.32
2022-12-29T18:11:01.343Z,73.21
2022-12-29T18:13:40.471Z,73.00
2022-12-29T18:16:12.646Z,73.10
2022-12-29T18:18:39.462Z,73.44
2022-12-29T18:21:06.145Z,73.56
2022-12-29T18:23:35.101Z,73.66
2022-12-29T18:26:07.370Z,73.71
2022-12-29T18:28:35.618Z,73.61
2022-12-29T18:31:02.486Z,73.79
2022-12-29T18:33:29.399Z,73.91
2022-12-29T18:36:05.756Z,74.08
2022-12-29T18:38:32.431Z,74.06
2022-12-29T18:40:59.345Z,74.18
2022-12-29T18:43:26.066Z,74.34
2022-12-29T18:45:52.910Z,74.23
2022-12-29T18:48:19.957Z,74.49
2022-12-29T18:50:47.034Z,74.56
2022-12-29T18:53:20.620Z,74.98
2022-12-29T18:55:47.387Z,74.91
2022-12-29T18:58:14.156Z,74.96
2022-12-29T19:00:41.055Z,75.02
2022-12-29T19:03:07.925Z,74.90
2022-12-29T19:05:38.756Z,74.77
2022-12-29T19:08:06.605Z,74.42
2022-12-29T19:10:33.341Z,74.51
2022-12-29T19:13:00.628Z,74.48
2022-12-29T19:15:35.306Z,73.93
2022-12-29T19:20:50.395Z,73.88
2022-12-29T19:23:21.408Z,73.66
2022-12-29T19:25:48.623Z,73.47
2022-12-29T19:28:23.483Z,73.04
2022-12-29T19:30:52.444Z,72.90
2022-12-29T19:33:21.072Z,72.61
2022-12-29T19:35:48.157Z,72.46
2022-12-29T19:38:14.887Z,72.64
2022-12-29T19:40:43.479Z,72.24
2022-12-29T19:43:13.877Z,71.87
2022-12-29T19:45:41.575Z,71.46
2022-12-29T19:48:09.536Z,71.52
2022-12-29T19:50:36.211Z,71.34
2022-12-29T19:53:05.567Z,71.16
2022-12-29T19:55:32.731Z,70.82
2022-12-29T19:57:59.449Z,70.96
2022-12-29T20:00:26.216Z,70.86
2022-12-29T20:02:53.283Z,70.88
2022-12-29T20:05:20.404Z,71.12
2022-12-29T20:07:48.269Z,70.94
2022-12-29T20:10:15.010Z,70.87
2022-12-29T20:12:41.655Z,70.66
2022-12-29T20:15:08.662Z,70.78
2022-12-29T20:18:10.633Z,70.94
2022-12-29T20:20:22.276Z,70.93
2022-12-29T20:22:48.892Z,71.06
2022-12-29T20:25:44.071Z,71.28
2022-12-29T20:28:02.331Z,71.36
2022-12-29T22:10:28.462Z,76.23
2022-12-29T22:12:59.780Z,76.23
2022-12-29T22:15:27.980Z,75.84
2022-12-29T22:17:54.935Z,75.78
2022-12-29T22:20:24.888Z,75.51
2022-12-29T22:22:51.533Z,74.99
2022-12-29T22:25:18.485Z,74.97
2022-12-29T22:27:45.253Z,74.60
2022-12-29T22:30:12.178Z,74.47
2022-12-29T22:32:38.911Z,74.46
2022-12-29T22:35:08.380Z,74.17
2022-12-29T22:37:35.615Z,73.90
2022-12-29T22:40:02.247Z,73.92
2022-12-29T22:42:29.150Z,73.89
2022-12-29T22:44:55.865Z,73.81
2022-12-29T22:47:22.651Z,73.54
2022-12-29T22:49:49.396Z,73.70
2022-12-29T22:52:16.063Z,73.72
2022-12-29T22:54:42.733Z,73.48
2022-12-29T22:57:09.421Z,73.60
2022-12-29T22:59:36.053Z,73.44
2022-12-29T23:02:02.838Z,73.48
2022-12-29T23:07:16.389Z,73.66
2022-12-29T23:09:43.087Z,73.58
2022-12-29T23:12:09.858Z,73.61
2022-12-29T23:14:36.506Z,74.09
2022-12-29T23:17:03.175Z,73.97
2022-12-29T23:19:29.786Z,73.87
2022-12-29T23:21:56.534Z,74.02
2022-12-29T23:24:23.203Z,74.12
2022-12-29T23:26:49.898Z,74.36
2022-12-29T23:29:18.198Z,74.45
2022-12-29T23:31:45.253Z,74.57
2022-12-29T23:34:12.447Z,74.57
2022-12-29T23:36:39.273Z,74.67
2022-12-29T23:39:06.223Z,74.95
2022-12-29T23:41:32.897Z,74.80
2022-12-29T23:43:59.529Z,75.08
2022-12-29T23:46:28.069Z,75.29
2022-12-29T23:48:55.168Z,75.12
2022-12-29T23:51:21.797Z,75.54
2022-12-29T23:53:48.633Z,75.55
2022-12-29T23:56:18.251Z,75.95
2022-12-29T23:58:44.993Z,75.92
